sensor_id;sensor_type;location;lat;lon;timestamp;temperature;humidity
67557;DHT22;54387;53.526;49.300;2022-12-13T00:01:10;-5.90;43.10
67557;DHT22;54387;53.526;49.300;2022-12-13T00:03:42;-6.00;43.40
67557;DHT22;54387;53.526;49.300;2022-12-13T00:06:13;-6.10;43.60
67557;DHT22;54387;53.526;49.300;2022-12-13T00:08:45;-6.10;43.70
67557;DHT22;54387;53.526;49.300;2022-12-13T00:11:16;-6.10;43.70
67557;DHT22;54387;53.526;49.300;2022-12-13T00:13:48;-6.10;43.80
67557;DHT22;54387;53.526;49.300;2022-12-13T00:16:20;-6.10;44.00
67557;DHT22;54387;53.526;49.300;2022-12-13T00:18:57;-6.10;44.00
67557;DHT22;54387;53.526;49.300;2022-12-13T00:21:29;-6.20;44.10
67557;DHT22;54387;53.526;49.300;2022-12-13T00:24:00;-6.20;44.00
67557;DHT22;54387;53.526;49.300;2022-12-13T00:26:32;-6.20;44.10
67557;DHT22;54387;53.526;49.300;2022-12-13T00:29:04;-6.20;44.20
67557;DHT22;54387;53.526;49.300;2022-12-13T00:31:35;-6.20;44.30
67557;DHT22;54387;53.526;49.300;2022-12-13T00:34:07;-6.20;44.30
67557;DHT22;54387;53.526;49.300;2022-12-13T00:36:38;-6.30;44.30
67557;DHT22;54387;53.526;49.300;2022-12-13T00:39:10;-6.30;44.30
67557;DHT22;54387;53.526;49.300;2022-12-13T00:41:43;-6.30;44.40
67557;DHT22;54387;53.526;49.300;2022-12-13T00:44:15;-6.30;44.50
67557;DHT22;54387;53.526;49.300;2022-12-13T00:46:48;-6.40;44.70
67557;DHT22;54387;53.526;49.300;2022-12-13T00:49:21;-6.30;44.90
67557;DHT22;54387;53.526;49.300;2022-12-13T00:51:53;-6.40;45.00
67557;DHT22;54387;53.526;49.300;2022-12-13T00:54:24;-6.40;45.10
67557;DHT22;54387;53.526;49.300;2022-12-13T00:56:55;-6.40;45.20
67557;DHT22;54387;53.526;49.300;2022-12-13T00:59:26;-6.40;45.40
67557;DHT22;54387;53.526;49.300;2022-12-13T01:01:58;-6.40;45.50
67557;DHT22;54387;53.526;49.300;2022-12-13T01:04:29;-6.50;45.60
67557;DHT22;54387;53.526;49.300;2022-12-13T01:07:00;-6.50;46.70
67557;DHT22;54387;53.526;49.300;2022-12-13T01:09:31;-6.60;45.90
67557;DHT22;54387;53.526;49.300;2022-12-13T01:12:04;-6.60;46.10
67557;DHT22;54387;53.526;49.300;2022-12-13T01:14:37;-6.70;46.30
67557;DHT22;54387;53.526;49.300;2022-12-13T01:17:09;-6.80;46.50
67557;DHT22;54387;53.526;49.300;2022-12-13T01:19:40;-6.80;46.70
67557;DHT22;54387;53.526;49.300;2022-12-13T01:22:11;-6.80;46.90
67557;DHT22;54387;53.526;49.300;2022-12-13T01:24:43;-6.80;47.10
67557;DHT22;54387;53.526;49.300;2022-12-13T01:27:14;-6.90;47.20
67557;DHT22;54387;53.526;49.300;2022-12-13T01:29:45;-6.90;47.30
67557;DHT22;54387;53.526;49.300;2022-12-13T01:32:17;-6.90;47.30
67557;DHT22;54387;53.526;49.300;2022-12-13T01:34:48;-6.90;47.40
67557;DHT22;54387;53.526;49.300;2022-12-13T01:37:19;-6.90;47.40
67557;DHT22;54387;53.526;49.300;2022-12-13T01:39:51;-6.90;47.40
67557;DHT22;54387;53.526;49.300;2022-12-13T01:42:22;-6.90;47.40
67557;DHT22;54387;53.526;49.300;2022-12-13T01:45:04;-6.90;47.50
67557;DHT22;54387;53.526;49.300;2022-12-13T01:47:38;-6.90;47.40
67557;DHT22;54387;53.526;49.300;2022-12-13T01:50:12;-6.90;47.50
67557;DHT22;54387;53.526;49.300;2022-12-13T01:52:45;-7.00;47.60
67557;DHT22;54387;53.526;49.300;2022-12-13T01:55:17;-7.00;47.60
67557;DHT22;54387;53.526;49.300;2022-12-13T01:57:50;-7.00;47.80
67557;DHT22;54387;53.526;49.300;2022-12-13T02:00:23;-7.00;47.90
67557;DHT22;54387;53.526;49.300;2022-12-13T02:03:00;-7.00;48.00
67557;DHT22;54387;53.526;49.300;2022-12-13T02:05:33;-7.00;48.10
67557;DHT22;54387;53.526;49.300;2022-12-13T02:08:06;-7.00;48.30
67557;DHT22;54387;53.526;49.300;2022-12-13T02:10:38;-7.00;48.40
67557;DHT22;54387;53.526;49.300;2022-12-13T02:13:09;-7.00;48.60
67557;DHT22;54387;53.526;49.300;2022-12-13T02:24:02;-7.00;48.80
67557;DHT22;54387;53.526;49.300;2022-12-13T02:34:54;-7.00;48.80
67557;DHT22;54387;53.526;49.300;2022-12-13T02:37:37;-7.00;48.70
67557;DHT22;54387;53.526;49.300;2022-12-13T02:40:20;-7.00;48.70
67557;DHT22;54387;53.526;49.300;2022-12-13T02:42:58;-6.90;48.90
67557;DHT22;54387;53.526;49.300;2022-12-13T02:45:45;-6.90;48.90
67557;DHT22;54387;53.526;49.300;2022-12-13T02:48:18;-6.90;48.90
67557;DHT22;54387;53.526;49.300;2022-12-13T02:50:51;-6.90;48.80
67557;DHT22;54387;53.526;49.300;2022-12-13T02:53:23;-6.80;48.90
67557;DHT22;54387;53.526;49.300;2022-12-13T02:55:55;-6.80;48.90
67557;DHT22;54387;53.526;49.300;2022-12-13T02:58:28;-6.80;48.90
67557;DHT22;54387;53.526;49.300;2022-12-13T03:03:47;-6.80;48.90
67557;DHT22;54387;53.526;49.300;2022-12-13T03:15:01;-6.80;49.10
67557;DHT22;54387;53.526;49.300;2022-12-13T03:17:41;-6.80;49.20
67557;DHT22;54387;53.526;49.300;2022-12-13T03:20:14;-6.80;49.30
67557;DHT22;54387;53.526;49.300;2022-12-13T03:22:45;-6.80;49.60
67557;DHT22;54387;53.526;49.300;2022-12-13T03:25:17;-6.80;49.70
67557;DHT22;54387;53.526;49.300;2022-12-13T03:27:48;-6.80;49.80
67557;DHT22;54387;53.526;49.300;2022-12-13T03:30:20;-6.90;49.90
67557;DHT22;54387;53.526;49.300;2022-12-13T03:32:51;-6.90;49.90
67557;DHT22;54387;53.526;49.300;2022-12-13T03:35:22;-6.90;49.90
67557;DHT22;54387;53.526;49.300;2022-12-13T03:37:54;-6.90;50.00
67557;DHT22;54387;53.526;49.300;2022-12-13T03:40:26;-6.90;50.00
67557;DHT22;54387;53.526;49.300;2022-12-13T03:42:58;-6.90;49.90
67557;DHT22;54387;53.526;49.300;2022-12-13T03:45:29;-6.90;49.90
67557;DHT22;54387;53.526;49.300;2022-12-13T03:48:01;-6.90;49.90
67557;DHT22;54387;53.526;49.300;2022-12-13T03:50:32;-6.80;50.10
67557;DHT22;54387;53.526;49.300;2022-12-13T03:53:03;-6.80;50.20
67557;DHT22;54387;53.526;49.300;2022-12-13T03:55:34;-6.80;50.30
67557;DHT22;54387;53.526;49.300;2022-12-13T03:58:06;-6.80;50.30
67557;DHT22;54387;53.526;49.300;2022-12-13T04:00:37;-6.80;50.20
67557;DHT22;54387;53.526;49.300;2022-12-13T04:03:08;-6.80;50.20
67557;DHT22;54387;53.526;49.300;2022-12-13T04:05:40;-6.80;50.00
67557;DHT22;54387;53.526;49.300;2022-12-13T04:08:11;-6.80;50.00
67557;DHT22;54387;53.526;49.300;2022-12-13T04:10:42;-6.80;50.00
67557;DHT22;54387;53.526;49.300;2022-12-13T04:13:14;-6.90;49.90
67557;DHT22;54387;53.526;49.300;2022-12-13T04:16:03;-6.90;50.00
67557;DHT22;54387;53.526;49.300;2022-12-13T04:18:34;-6.90;50.00
67557;DHT22;54387;53.526;49.300;2022-12-13T04:21:06;-6.80;50.10
67557;DHT22;54387;53.526;49.300;2022-12-13T04:23:37;-6.80;50.20
67557;DHT22;54387;53.526;49.300;2022-12-13T04:26:08;-6.80;50.10
67557;DHT22;54387;53.526;49.300;2022-12-13T04:28:40;-6.80;50.00
67557;DHT22;54387;53.526;49.300;2022-12-13T04:31:11;-6.80;50.00
67557;DHT22;54387;53.526;49.300;2022-12-13T04:33:42;-6.80;50.00
67557;DHT22;54387;53.526;49.300;2022-12-13T04:36:14;-6.70;50.10
67557;DHT22;54387;53.526;49.300;2022-12-13T04:38:49;-6.80;50.00
67557;DHT22;54387;53.526;49.300;2022-12-13T04:41:21;-6.80;50.00
67557;DHT22;54387;53.526;49.300;2022-12-13T04:43:52;-6.80;50.00
67557;DHT22;54387;53.526;49.300;2022-12-13T04:46:24;-6.80;50.10
67557;DHT22;54387;53.526;49.300;2022-12-13T04:48:56;-6.80;50.10
67557;DHT22;54387;53.526;49.300;2022-12-13T04:51:27;-6.80;50.10
67557;DHT22;54387;53.526;49.300;2022-12-13T04:53:58;-6.80;50.20
67557;DHT22;54387;53.526;49.300;2022-12-13T04:56:30;-6.80;50.00
67557;DHT22;54387;53.526;49.300;2022-12-13T04:59:01;-6.80;50.00
67557;DHT22;54387;53.526;49.300;2022-12-13T05:01:32;-6.70;50.10
67557;DHT22;54387;53.526;49.300;2022-12-13T05:04:04;-6.70;50.00
67557;DHT22;54387;53.526;49.300;2022-12-13T05:06:35;-6.70;50.00
67557;DHT22;54387;53.526;49.300;2022-12-13T05:09:06;-6.70;50.00
67557;DHT22;54387;53.526;49.300;2022-12-13T05:11:37;-6.70;49.90
67557;DHT22;54387;53.526;49.300;2022-12-13T05:14:09;-6.70;49.90
67557;DHT22;54387;53.526;49.300;2022-12-13T05:16:40;-6.70;49.90
67557;DHT22;54387;53.526;49.300;2022-12-13T05:19:12;-6.60;49.90
67557;DHT22;54387;53.526;49.300;2022-12-13T05:21:43;-6.60;49.70
67557;DHT22;54387;53.526;49.300;2022-12-13T05:24:14;-6.50;49.50
67557;DHT22;54387;53.526;49.300;2022-12-13T05:26:45;-6.50;49.30
67557;DHT22;54387;53.526;49.300;2022-12-13T05:29:18;-6.50;49.10
67557;DHT22;54387;53.526;49.300;2022-12-13T05:31:49;-6.40;49.10
67557;DHT22;54387;53.526;49.300;2022-12-13T05:34:21;-6.40;49.20
67557;DHT22;54387;53.526;49.300;2022-12-13T05:36:52;-6.30;48.90
67557;DHT22;54387;53.526;49.300;2022-12-13T05:39:23;-6.30;48.70
67557;DHT22;54387;53.526;49.300;2022-12-13T05:41:55;-6.30;48.60
67557;DHT22;54387;53.526;49.300;2022-12-13T05:44:27;-6.20;48.40
67557;DHT22;54387;53.526;49.300;2022-12-13T05:46:58;-6.20;48.30
67557;DHT22;54387;53.526;49.300;2022-12-13T05:49:30;-6.10;48.10
67557;DHT22;54387;53.526;49.300;2022-12-13T05:52:02;-6.10;48.00
67557;DHT22;54387;53.526;49.300;2022-12-13T05:54:33;-6.00;48.00
67557;DHT22;54387;53.526;49.300;2022-12-13T05:57:04;-5.90;47.80
67557;DHT22;54387;53.526;49.300;2022-12-13T05:59:36;-5.90;47.70
67557;DHT22;54387;53.526;49.300;2022-12-13T06:02:07;-5.80;47.40
67557;DHT22;54387;53.526;49.300;2022-12-13T06:04:39;-5.80;47.10
67557;DHT22;54387;53.526;49.300;2022-12-13T06:07:10;-5.70;47.00
67557;DHT22;54387;53.526;49.300;2022-12-13T06:09:42;-5.70;46.80
67557;DHT22;54387;53.526;49.300;2022-12-13T06:12:13;-5.60;46.50
67557;DHT22;54387;53.526;49.300;2022-12-13T06:14:46;-5.60;46.30
67557;DHT22;54387;53.526;49.300;2022-12-13T06:17:17;-5.60;46.00
67557;DHT22;54387;53.526;49.300;2022-12-13T06:19:49;-5.50;45.90
67557;DHT22;54387;53.526;49.300;2022-12-13T06:22:21;-5.50;45.80
67557;DHT22;54387;53.526;49.300;2022-12-13T06:24:52;-5.40;45.70
67557;DHT22;54387;53.526;49.300;2022-12-13T06:27:24;-5.40;45.70
67557;DHT22;54387;53.526;49.300;2022-12-13T06:29:55;-5.40;45.40
67557;DHT22;54387;53.526;49.300;2022-12-13T06:32:26;-5.30;45.40
67557;DHT22;54387;53.526;49.300;2022-12-13T06:34:57;-5.30;45.00
67557;DHT22;54387;53.526;49.300;2022-12-13T06:37:29;-5.20;44.90
67557;DHT22;54387;53.526;49.300;2022-12-13T06:40:00;-5.20;44.80
67557;DHT22;54387;53.526;49.300;2022-12-13T06:42:31;-5.20;44.60
67557;DHT22;54387;53.526;49.300;2022-12-13T06:45:03;-5.10;44.50
67557;DHT22;54387;53.526;49.300;2022-12-13T06:47:34;-5.10;44.40
67557;DHT22;54387;53.526;49.300;2022-12-13T06:50:06;-5.10;44.20
67557;DHT22;54387;53.526;49.300;2022-12-13T06:52:37;-5.00;44.30
67557;DHT22;54387;53.526;49.300;2022-12-13T06:55:08;-4.90;44.00
67557;DHT22;54387;53.526;49.300;2022-12-13T06:57:40;-4.90;43.90
67557;DHT22;54387;53.526;49.300;2022-12-13T07:00:12;-4.90;43.80
67557;DHT22;54387;53.526;49.300;2022-12-13T07:02:43;-4.80;43.80
67557;DHT22;54387;53.526;49.300;2022-12-13T07:05:15;-4.70;43.90
67557;DHT22;54387;53.526;49.300;2022-12-13T07:07:46;-4.70;43.70
67557;DHT22;54387;53.526;49.300;2022-12-13T07:10:18;-4.50;43.40
67557;DHT22;54387;53.526;49.300;2022-12-13T07:12:49;-4.50;42.90
67557;DHT22;54387;53.526;49.300;2022-12-13T07:15:20;-4.50;42.60
67557;DHT22;54387;53.526;49.300;2022-12-13T07:17:52;-4.40;42.40
67557;DHT22;54387;53.526;49.300;2022-12-13T07:20:23;-4.40;42.50
67557;DHT22;54387;53.526;49.300;2022-12-13T07:22:54;-4.40;42.60
67557;DHT22;54387;53.526;49.300;2022-12-13T07:25:26;-4.30;42.70
67557;DHT22;54387;53.526;49.300;2022-12-13T07:28:05;-4.20;42.50
67557;DHT22;54387;53.526;49.300;2022-12-13T07:30:38;-4.20;42.30
67557;DHT22;54387;53.526;49.300;2022-12-13T07:33:10;-4.10;41.80
67557;DHT22;54387;53.526;49.300;2022-12-13T07:35:42;-4.10;41.80
67557;DHT22;54387;53.526;49.300;2022-12-13T07:38:13;-4.00;41.70
67557;DHT22;54387;53.526;49.300;2022-12-13T07:40:44;-4.00;41.50
67557;DHT22;54387;53.526;49.300;2022-12-13T07:43:16;-4.00;41.60
67557;DHT22;54387;53.526;49.300;2022-12-13T07:45:48;-4.00;41.90
67557;DHT22;54387;53.526;49.300;2022-12-13T07:48:19;-4.00;41.90
67557;DHT22;54387;53.526;49.300;2022-12-13T07:50:52;-3.90;42.10
67557;DHT22;54387;53.526;49.300;2022-12-13T07:53:23;-3.90;42.20
67557;DHT22;54387;53.526;49.300;2022-12-13T07:55:55;-3.90;42.30
67557;DHT22;54387;53.526;49.300;2022-12-13T07:58:26;-3.90;42.30
67557;DHT22;54387;53.526;49.300;2022-12-13T08:01:00;-3.80;42.40
67557;DHT22;54387;53.526;49.300;2022-12-13T08:03:32;-3.80;42.30
67557;DHT22;54387;53.526;49.300;2022-12-13T08:06:04;-3.80;42.40
67557;DHT22;54387;53.526;49.300;2022-12-13T08:08:36;-3.80;42.60
67557;DHT22;54387;53.526;49.300;2022-12-13T08:11:08;-3.80;42.80
67557;DHT22;54387;53.526;49.300;2022-12-13T08:13:40;-3.70;42.80
67557;DHT22;54387;53.526;49.300;2022-12-13T08:16:12;-3.70;42.60
67557;DHT22;54387;53.526;49.300;2022-12-13T08:18:45;-3.70;42.60
67557;DHT22;54387;53.526;49.300;2022-12-13T08:21:17;-3.70;42.70
67557;DHT22;54387;53.526;49.300;2022-12-13T08:23:49;-3.70;42.80
67557;DHT22;54387;53.526;49.300;2022-12-13T08:26:21;-3.70;42.80
67557;DHT22;54387;53.526;49.300;2022-12-13T08:28:52;-3.60;42.90
67557;DHT22;54387;53.526;49.300;2022-12-13T08:31:24;-3.60;42.80
67557;DHT22;54387;53.526;49.300;2022-12-13T08:33:55;-3.50;42.80
67557;DHT22;54387;53.526;49.300;2022-12-13T08:36:26;-3.40;42.70
67557;DHT22;54387;53.526;49.300;2022-12-13T08:38:58;-3.40;42.40
67557;DHT22;54387;53.526;49.300;2022-12-13T08:41:32;-3.30;42.40
67557;DHT22;54387;53.526;49.300;2022-12-13T08:44:03;-3.20;42.50
67557;DHT22;54387;53.526;49.300;2022-12-13T08:46:35;-3.20;42.50
67557;DHT22;54387;53.526;49.300;2022-12-13T08:49:06;-3.10;42.60
67557;DHT22;54387;53.526;49.300;2022-12-13T08:51:38;-3.00;42.60
67557;DHT22;54387;53.526;49.300;2022-12-13T08:54:09;-2.90;42.40
67557;DHT22;54387;53.526;49.300;2022-12-13T08:56:40;-2.90;42.30
67557;DHT22;54387;53.526;49.300;2022-12-13T08:59:11;-2.80;42.00
67557;DHT22;54387;53.526;49.300;2022-12-13T09:01:43;-2.80;41.70
67557;DHT22;54387;53.526;49.300;2022-12-13T09:04:14;-2.70;41.20
67557;DHT22;54387;53.526;49.300;2022-12-13T09:06:48;-2.70;41.10
67557;DHT22;54387;53.526;49.300;2022-12-13T09:09:20;-2.70;41.00
67557;DHT22;54387;53.526;49.300;2022-12-13T09:11:51;-2.70;41.00
67557;DHT22;54387;53.526;49.300;2022-12-13T09:14:22;-2.60;41.20
67557;DHT22;54387;53.526;49.300;2022-12-13T09:16:54;-2.50;41.10
67557;DHT22;54387;53.526;49.300;2022-12-13T09:19:26;-2.40;41.10
67557;DHT22;54387;53.526;49.300;2022-12-13T09:21:57;-2.30;41.10
67557;DHT22;54387;53.526;49.300;2022-12-13T09:24:29;-2.30;40.60
67557;DHT22;54387;53.526;49.300;2022-12-13T09:27:00;-2.20;40.40
67557;DHT22;54387;53.526;49.300;2022-12-13T09:29:32;-2.20;40.20
67557;DHT22;54387;53.526;49.300;2022-12-13T09:32:04;-2.10;40.00
67557;DHT22;54387;53.526;49.300;2022-12-13T09:34:35;-2.10;39.40
67557;DHT22;54387;53.526;49.300;2022-12-13T09:37:06;-2.00;39.90
67557;DHT22;54387;53.526;49.300;2022-12-13T09:39:38;-1.90;39.30
67557;DHT22;54387;53.526;49.300;2022-12-13T09:42:14;-1.90;39.50
67557;DHT22;54387;53.526;49.300;2022-12-13T09:44:52;-1.80;39.30
67557;DHT22;54387;53.526;49.300;2022-12-13T09:47:34;-1.60;39.30
67557;DHT22;54387;53.526;49.300;2022-12-13T09:50:29;-1.40;39.40
67557;DHT22;54387;53.526;49.300;2022-12-13T09:53:03;-0.90;40.50
67557;DHT22;54387;53.526;49.300;2022-12-13T09:55:37;-0.60;38.10
67557;DHT22;54387;53.526;49.300;2022-12-13T09:58:26;-0.60;37.80
67557;DHT22;54387;53.526;49.300;2022-12-13T10:00:58;-0.70;37.60
67557;DHT22;54387;53.526;49.300;2022-12-13T10:03:29;-0.70;37.60
67557;DHT22;54387;53.526;49.300;2022-12-13T10:06:14;-0.50;38.20
67557;DHT22;54387;53.526;49.300;2022-12-13T10:08:49;-0.10;38.20
67557;DHT22;54387;53.526;49.300;2022-12-13T10:11:22;0.40;37.30
67557;DHT22;54387;53.526;49.300;2022-12-13T10:19:02;1.80;35.90
67557;DHT22;54387;53.526;49.300;2022-12-13T10:21:41;1.70;35.10
67557;DHT22;54387;53.526;49.300;2022-12-13T10:24:18;1.20;34.80
67557;DHT22;54387;53.526;49.300;2022-12-13T10:26:49;0.90;35.30
67557;DHT22;54387;53.526;49.300;2022-12-13T10:29:21;0.60;35.30
67557;DHT22;54387;53.526;49.300;2022-12-13T10:31:52;0.30;35.40
67557;DHT22;54387;53.526;49.300;2022-12-13T10:34:24;0.10;35.70
67557;DHT22;54387;53.526;49.300;2022-12-13T10:36:57;-0.10;35.90
67557;DHT22;54387;53.526;49.300;2022-12-13T10:39:35;-0.20;35.90
67557;DHT22;54387;53.526;49.300;2022-12-13T10:42:17;-0.20;35.70
67557;DHT22;54387;53.526;49.300;2022-12-13T10:44:48;-0.20;35.60
67557;DHT22;54387;53.526;49.300;2022-12-13T10:47:37;0.10;35.80
67557;DHT22;54387;53.526;49.300;2022-12-13T10:50:27;0.30;35.60
67557;DHT22;54387;53.526;49.300;2022-12-13T10:52:59;0.60;35.50
67557;DHT22;54387;53.526;49.300;2022-12-13T10:55:34;0.90;35.00
67557;DHT22;54387;53.526;49.300;2022-12-13T10:58:15;0.80;34.50
67557;DHT22;54387;53.526;49.300;2022-12-13T11:00:48;0.60;34.00
67557;DHT22;54387;53.526;49.300;2022-12-13T11:03:30;0.30;34.20
67557;DHT22;54387;53.526;49.300;2022-12-13T11:06:14;0.00;33.90
67557;DHT22;54387;53.526;49.300;2022-12-13T11:08:46;-0.30;34.10
67557;DHT22;54387;53.526;49.300;2022-12-13T11:11:17;-0.60;34.40
67557;DHT22;54387;53.526;49.300;2022-12-13T11:13:56;-0.80;34.50
67557;DHT22;54387;53.526;49.300;2022-12-13T11:16:32;-0.90;34.80
67557;DHT22;54387;53.526;49.300;2022-12-13T11:19:20;-1.00;34.80
67557;DHT22;54387;53.526;49.300;2022-12-13T11:21:53;-1.10;34.80
67557;DHT22;54387;53.526;49.300;2022-12-13T11:24:27;-1.20;34.90
67557;DHT22;54387;53.526;49.300;2022-12-13T11:29:56;-1.40;35.00
67557;DHT22;54387;53.526;49.300;2022-12-13T11:37:56;-1.80;35.50
67557;DHT22;54387;53.526;49.300;2022-12-13T11:40:29;-1.90;35.60
67557;DHT22;54387;53.526;49.300;2022-12-13T11:43:04;-2.00;35.80
67557;DHT22;54387;53.526;49.300;2022-12-13T11:45:42;-2.10;36.00
67557;DHT22;54387;53.526;49.300;2022-12-13T11:48:20;-2.20;36.00
67557;DHT22;54387;53.526;49.300;2022-12-13T11:50:54;-2.30;36.20
67557;DHT22;54387;53.526;49.300;2022-12-13T12:01:36;-2.50;36.70
67557;DHT22;54387;53.526;49.300;2022-12-13T12:04:13;-2.60;36.70
67557;DHT22;54387;53.526;49.300;2022-12-13T12:09:56;-2.70;37.00
67557;DHT22;54387;53.526;49.300;2022-12-13T12:12:31;-2.70;37.30
67557;DHT22;54387;53.526;49.300;2022-12-13T12:15:14;-2.80;37.40
67557;DHT22;54387;53.526;49.300;2022-12-13T12:17:46;-2.80;37.40
67557;DHT22;54387;53.526;49.300;2022-12-13T12:20:20;-2.90;37.50
67557;DHT22;54387;53.526;49.300;2022-12-13T12:25:52;-3.00;37.70
67557;DHT22;54387;53.526;49.300;2022-12-13T12:31:15;-3.10;37.90
67557;DHT22;54387;53.526;49.300;2022-12-13T12:38:59;-3.20;38.30
67557;DHT22;54387;53.526;49.300;2022-12-13T12:41:48;-3.30;38.20
67557;DHT22;54387;53.526;49.300;2022-12-13T13:00:23;-3.50;38.60
67557;DHT22;54387;53.526;49.300;2022-12-13T13:02:58;-3.60;38.70
67557;DHT22;54387;53.526;49.300;2022-12-13T13:11:14;-3.70;39.00
67557;DHT22;54387;53.526;49.300;2022-12-13T13:13:49;-3.70;39.30
67557;DHT22;54387;53.526;49.300;2022-12-13T13:16:40;-3.70;39.50
67557;DHT22;54387;53.526;49.300;2022-12-13T13:21:55;-3.80;39.70
67557;DHT22;54387;53.526;49.300;2022-12-13T13:24:27;-3.80;39.90
67557;DHT22;54387;53.526;49.300;2022-12-13T13:29:40;-3.80;40.20
67557;DHT22;54387;53.526;49.300;2022-12-13T13:34:47;-3.90;40.50
67557;DHT22;54387;53.526;49.300;2022-12-13T13:42:28;-4.00;41.00
67557;DHT22;54387;53.526;49.300;2022-12-13T13:45:00;-4.00;41.00
67557;DHT22;54387;53.526;49.300;2022-12-13T13:47:36;-4.00;41.20
67557;DHT22;54387;53.526;49.300;2022-12-13T14:08:47;-4.10;41.70
67557;DHT22;54387;53.526;49.300;2022-12-13T14:30:16;-4.00;41.60
67557;DHT22;54387;53.526;49.300;2022-12-13T14:32:48;-4.00;41.60
67557;DHT22;54387;53.526;49.300;2022-12-13T14:35:27;-4.00;41.50
67557;DHT22;54387;53.526;49.300;2022-12-13T14:38:00;-4.00;41.50
67557;DHT22;54387;53.526;49.300;2022-12-13T14:40:33;-3.90;41.60
67557;DHT22;54387;53.526;49.300;2022-12-13T14:43:04;-3.90;41.50
67557;DHT22;54387;53.526;49.300;2022-12-13T14:45:36;-3.90;41.50
67557;DHT22;54387;53.526;49.300;2022-12-13T14:48:12;-3.90;41.50
67557;DHT22;54387;53.526;49.300;2022-12-13T14:50:45;-3.90;41.50
67557;DHT22;54387;53.526;49.300;2022-12-13T14:53:38;-3.90;41.40
67557;DHT22;54387;53.526;49.300;2022-12-13T14:56:14;-3.90;41.40
67557;DHT22;54387;53.526;49.300;2022-12-13T14:58:52;-3.80;41.40
67557;DHT22;54387;53.526;49.300;2022-12-13T15:01:34;-3.80;41.50
67557;DHT22;54387;53.526;49.300;2022-12-13T15:06:47;-3.80;41.40
67557;DHT22;54387;53.526;49.300;2022-12-13T15:09:19;-3.80;41.30
67557;DHT22;54387;53.526;49.300;2022-12-13T15:11:50;-3.80;41.30
67557;DHT22;54387;53.526;49.300;2022-12-13T15:14:23;-3.70;41.40
67557;DHT22;54387;53.526;49.300;2022-12-13T15:16:55;-3.70;41.40
67557;DHT22;54387;53.526;49.300;2022-12-13T15:19:26;-3.70;41.40
67557;DHT22;54387;53.526;49.300;2022-12-13T15:22:02;-3.70;41.40
67557;DHT22;54387;53.526;49.300;2022-12-13T15:24:35;-3.70;41.40
67557;DHT22;54387;53.526;49.300;2022-12-13T15:27:08;-3.70;41.40
67557;DHT22;54387;53.526;49.300;2022-12-13T15:29:41;-3.70;41.30
67557;DHT22;54387;53.526;49.300;2022-12-13T15:32:15;-3.70;41.30
67557;DHT22;54387;53.526;49.300;2022-12-13T15:34:49;-3.60;41.30
67557;DHT22;54387;53.526;49.300;2022-12-13T15:37:28;-3.60;41.30
67557;DHT22;54387;53.526;49.300;2022-12-13T15:40:07;-3.60;41.40
67557;DHT22;54387;53.526;49.300;2022-12-13T15:42:38;-3.70;41.30
67557;DHT22;54387;53.526;49.300;2022-12-13T15:45:20;-3.70;41.30
67557;DHT22;54387;53.526;49.300;2022-12-13T15:47:53;-3.60;41.30
67557;DHT22;54387;53.526;49.300;2022-12-13T15:50:29;-3.60;41.30
67557;DHT22;54387;53.526;49.300;2022-12-13T15:53:02;-3.70;41.30
67557;DHT22;54387;53.526;49.300;2022-12-13T15:55:35;-3.70;41.30
67557;DHT22;54387;53.526;49.300;2022-12-13T15:58:20;-3.70;41.20
67557;DHT22;54387;53.526;49.300;2022-12-13T16:00:53;-3.70;41.10
67557;DHT22;54387;53.526;49.300;2022-12-13T16:03:24;-3.70;41.10
67557;DHT22;54387;53.526;49.300;2022-12-13T16:05:56;-3.70;41.10
67557;DHT22;54387;53.526;49.300;2022-12-13T16:08:29;-3.70;41.00
67557;DHT22;54387;53.526;49.300;2022-12-13T16:11:01;-3.70;40.90
67557;DHT22;54387;53.526;49.300;2022-12-13T16:13:33;-3.70;40.90
67557;DHT22;54387;53.526;49.300;2022-12-13T16:16:19;-3.70;40.90
67557;DHT22;54387;53.526;49.300;2022-12-13T16:18:55;-3.70;40.80
67557;DHT22;54387;53.526;49.300;2022-12-13T16:21:27;-3.70;40.80
67557;DHT22;54387;53.526;49.300;2022-12-13T16:23:59;-3.70;40.70
67557;DHT22;54387;53.526;49.300;2022-12-13T16:26:33;-3.60;40.70
67557;DHT22;54387;53.526;49.300;2022-12-13T16:29:04;-3.70;40.60
67557;DHT22;54387;53.526;49.300;2022-12-13T16:31:38;-3.60;40.50
67557;DHT22;54387;53.526;49.300;2022-12-13T16:34:10;-3.60;40.40
67557;DHT22;54387;53.526;49.300;2022-12-13T16:36:42;-3.60;40.40
67557;DHT22;54387;53.526;49.300;2022-12-13T16:39:13;-3.60;40.30
67557;DHT22;54387;53.526;49.300;2022-12-13T16:41:45;-3.60;40.30
67557;DHT22;54387;53.526;49.300;2022-12-13T16:44:32;-3.60;40.30
67557;DHT22;54387;53.526;49.300;2022-12-13T16:47:07;-3.60;40.40
67557;DHT22;54387;53.526;49.300;2022-12-13T16:49:39;-3.60;40.30
67557;DHT22;54387;53.526;49.300;2022-12-13T16:52:12;-3.60;40.30
67557;DHT22;54387;53.526;49.300;2022-12-13T16:54:43;-3.70;40.20
67557;DHT22;54387;53.526;49.300;2022-12-13T16:57:15;-3.70;40.10
67557;DHT22;54387;53.526;49.300;2022-12-13T16:59:46;-3.60;40.20
67557;DHT22;54387;53.526;49.300;2022-12-13T17:02:18;-3.70;40.00
67557;DHT22;54387;53.526;49.300;2022-12-13T17:04:50;-3.70;40.00
67557;DHT22;54387;53.526;49.300;2022-12-13T17:07:21;-3.70;39.90
67557;DHT22;54387;53.526;49.300;2022-12-13T17:09:52;-3.70;40.20
67557;DHT22;54387;53.526;49.300;2022-12-13T17:12:24;-3.70;39.70
67557;DHT22;54387;53.526;49.300;2022-12-13T17:14:56;-3.70;39.70
67557;DHT22;54387;53.526;49.300;2022-12-13T17:17:27;-3.70;39.60
67557;DHT22;54387;53.526;49.300;2022-12-13T17:19:58;-3.70;39.60
67557;DHT22;54387;53.526;49.300;2022-12-13T17:22:30;-3.70;39.60
67557;DHT22;54387;53.526;49.300;2022-12-13T17:25:02;-3.70;39.40
67557;DHT22;54387;53.526;49.300;2022-12-13T17:27:34;-3.70;39.40
67557;DHT22;54387;53.526;49.300;2022-12-13T17:30:06;-3.70;39.40
67557;DHT22;54387;53.526;49.300;2022-12-13T17:32:40;-3.70;39.30
67557;DHT22;54387;53.526;49.300;2022-12-13T17:35:12;-3.70;39.20
67557;DHT22;54387;53.526;49.300;2022-12-13T17:37:43;-3.70;39.30
67557;DHT22;54387;53.526;49.300;2022-12-13T17:40:15;-3.70;39.20
67557;DHT22;54387;53.526;49.300;2022-12-13T17:42:50;-3.70;39.10
67557;DHT22;54387;53.526;49.300;2022-12-13T17:45:21;-3.70;39.20
67557;DHT22;54387;53.526;49.300;2022-12-13T17:47:53;-3.70;39.30
67557;DHT22;54387;53.526;49.300;2022-12-13T17:50:25;-3.70;39.30
67557;DHT22;54387;53.526;49.300;2022-12-13T17:52:57;-3.70;39.30
67557;DHT22;54387;53.526;49.300;2022-12-13T17:55:29;-3.70;39.30
67557;DHT22;54387;53.526;49.300;2022-12-13T17:58:01;-3.70;39.30
67557;DHT22;54387;53.526;49.300;2022-12-13T18:00:32;-3.70;39.20
67557;DHT22;54387;53.526;49.300;2022-12-13T18:03:04;-3.70;39.30
67557;DHT22;54387;53.526;49.300;2022-12-13T18:05:35;-3.70;39.30
67557;DHT22;54387;53.526;49.300;2022-12-13T18:08:06;-3.70;39.30
67557;DHT22;54387;53.526;49.300;2022-12-13T18:10:39;-3.70;39.40
67557;DHT22;54387;53.526;49.300;2022-12-13T18:13:11;-3.70;39.30